Time;durP1;ratioP1;P1;durP2;ratioP2;P2;SDS_P1;SDS_P2;PMS_P1;PMS_P2;Temp;Humidity;BMP_temperature;BMP_pressure;BME280_temperature;BME280_humidity;BME280_pressure;Samples;Min_cycle;Max_cycle;Signal;HPM_P1;HPM_P2
2023/11/06 00:00:23;;;;;;;3.47;2.17;;;16.10;69.90;;;;;;5137125;27;20192;-68
2023/11/06 00:02:48;;;;;;;2.92;2.40;;;16.10;70.00;;;;;;5137200;27;20194;-68
2023/11/06 00:05:14;;;;;;;4.15;2.30;;;16.10;70.10;;;;;;5136222;27;20173;-68
2023/11/06 00:07:40;;;;;;;4.53;2.55;;;16.10;70.10;;;;;;5137182;27;20183;-69
2023/11/06 00:10:09;;;;;;;3.85;2.60;;;16.10;70.20;;;;;;5137022;27;20179;-68
2023/11/06 00:12:38;;;;;;;4.22;2.38;;;16.10;70.10;;;;;;5136497;27;20251;-68
2023/11/06 00:15:04;;;;;;;3.25;2.42;;;16.10;70.00;;;;;;5137059;27;20168;-68
2023/11/06 00:17:30;;;;;;;6.28;2.65;;;16.00;69.90;;;;;;5137203;27;20710;-68
2023/11/06 00:19:55;;;;;;;3.08;2.58;;;16.00;69.90;;;;;;5136496;27;20633;-68
2023/11/06 00:22:21;;;;;;;4.35;2.15;;;16.00;70.20;;;;;;5136691;27;20215;-68
2023/11/06 00:24:46;;;;;;;5.38;2.47;;;16.10;70.00;;;;;;5136769;27;20176;-68
2023/11/06 00:27:12;;;;;;;3.95;2.00;;;16.00;70.00;;;;;;5135712;27;20172;-69
2023/11/06 00:29:40;;;;;;;4.00;2.28;;;16.00;69.80;;;;;;5136920;27;20568;-68
2023/11/06 00:32:06;;;;;;;3.75;2.20;;;16.00;69.80;;;;;;5136391;27;20183;-68
2023/11/06 00:34:32;;;;;;;3.42;2.30;;;16.00;69.90;;;;;;5136001;27;20168;-68
2023/11/06 00:36:57;;;;;;;3.08;2.00;;;16.00;69.70;;;;;;5136447;27;20204;-68
2023/11/06 00:39:23;;;;;;;2.20;2.00;;;16.00;70.00;;;;;;5136488;27;20174;-68
2023/11/06 00:41:48;;;;;;;3.47;1.88;;;16.00;69.90;;;;;;5136137;27;20212;-68
2023/11/06 00:44:14;;;;;;;3.30;2.03;;;16.00;69.80;;;;;;5136421;27;20579;-68
2023/11/06 00:46:39;;;;;;;3.38;1.95;;;16.00;70.00;;;;;;5136391;27;20630;-68
2023/11/06 00:49:05;;;;;;;3.60;1.90;;;16.00;69.90;;;;;;5134048;27;20220;-68
2023/11/06 00:51:31;;;;;;;3.58;2.15;;;16.00;69.90;;;;;;5136403;27;20201;-68
2023/11/06 00:53:56;;;;;;;3.50;1.85;;;16.00;70.00;;;;;;5136095;27;20172;-69
2023/11/06 00:56:22;;;;;;;3.35;2.10;;;16.00;70.20;;;;;;5135555;27;20276;-68
2023/11/06 00:58:47;;;;;;;4.50;1.80;;;16.00;69.90;;;;;;5136124;27;20191;-68
2023/11/06 01:01:13;;;;;;;3.80;2.10;;;16.00;70.20;;;;;;5135159;27;20204;-68
2023/11/06 01:03:39;;;;;;;3.75;1.73;;;15.90;70.10;;;;;;5136370;27;20165;-68
2023/11/06 01:06:04;;;;;;;3.58;1.60;;;15.90;70.00;;;;;;5135786;27;20229;-68
2023/11/06 01:08:30;;;;;;;3.83;2.10;;;16.00;70.00;;;;;;5135409;27;20173;-69
2023/11/06 01:10:55;;;;;;;2.40;2.17;;;16.00;69.70;;;;;;5136088;27;20169;-70
2023/11/06 01:13:21;;;;;;;4.22;2.00;;;15.90;69.90;;;;;;5135897;27;20165;-69
2023/11/06 01:15:47;;;;;;;2.10;1.90;;;15.90;70.10;;;;;;5135502;27;20176;-69
2023/11/06 01:18:12;;;;;;;3.42;2.22;;;15.90;69.90;;;;;;5135623;27;20173;-68
2023/11/06 01:20:39;;;;;;;2.45;1.80;;;15.90;70.00;;;;;;5135834;27;20332;-68
2023/11/06 01:23:05;;;;;;;2.45;1.60;;;15.90;70.00;;;;;;5134654;27;20630;-68
2023/11/06 01:25:30;;;;;;;2.05;1.60;;;15.90;70.00;;;;;;5135572;27;20173;-69
2023/11/06 01:27:56;;;;;;;2.45;1.77;;;15.90;70.10;;;;;;5135962;27;20272;-69
2023/11/06 01:30:22;;;;;;;3.42;2.13;;;15.90;70.10;;;;;;5134821;27;20168;-68
2023/11/06 01:32:47;;;;;;;3.22;1.92;;;15.90;69.80;;;;;;5135800;27;20539;-69
2023/11/06 01:35:13;;;;;;;3.10;1.70;;;15.90;70.10;;;;;;5135486;27;20180;-69
2023/11/06 01:37:38;;;;;;;2.25;2.00;;;15.90;70.10;;;;;;5134784;27;20172;-69
2023/11/06 01:40:07;;;;;;;2.97;1.98;;;15.90;70.10;;;;;;5135378;27;20176;-68
2023/11/06 01:42:32;;;;;;;2.25;1.90;;;15.90;70.20;;;;;;5135612;27;20267;-68
2023/11/06 01:44:58;;;;;;;2.42;1.80;;;15.90;70.10;;;;;;5134328;27;20267;-69
2023/11/06 01:47:24;;;;;;;3.42;1.90;;;15.80;69.90;;;;;;5135287;27;20168;-68
2023/11/06 01:49:49;;;;;;;2.28;1.80;;;15.80;70.10;;;;;;5117369;27;20255;-68
2023/11/06 01:52:17;;;;;;;3.03;2.00;;;15.80;70.00;;;;;;5115752;27;20639;-68
2023/11/06 01:54:42;;;;;;;3.63;1.60;;;15.80;70.20;;;;;;5135218;27;20172;-68
2023/11/06 01:57:08;;;;;;;3.58;1.70;;;15.80;70.10;;;;;;5135036;27;20225;-69
2023/11/06 01:59:34;;;;;;;2.20;1.92;;;15.80;69.80;;;;;;5133958;27;20541;-68
2023/11/06 02:02:04;;;;;;;2.25;1.75;;;15.80;70.10;;;;;;5134641;27;20247;-68
2023/11/06 02:04:30;;;;;;;3.17;1.65;;;15.80;70.20;;;;;;5133935;27;20164;-69
2023/11/06 02:06:55;;;;;;;4.25;2.20;;;15.80;70.10;;;;;;5134880;27;20176;-68
2023/11/06 02:09:21;;;;;;;1.70;1.42;;;15.80;70.10;;;;;;5116238;27;20232;-69
2023/11/06 02:11:47;;;;;;;2.08;1.77;;;15.70;70.10;;;;;;5134383;27;20216;-69
2023/11/06 02:14:12;;;;;;;1.65;1.45;;;15.80;70.00;;;;;;5116503;27;20199;-69
2023/11/06 02:16:38;;;;;;;3.63;1.95;;;15.80;70.10;;;;;;5134747;27;20623;-68
2023/11/06 02:19:05;;;;;;;2.30;1.70;;;15.80;69.90;;;;;;5133697;27;20172;-68
2023/11/06 02:21:32;;;;;;;1.48;1.38;;;15.80;70.20;;;;;;5134535;27;20223;-69
2023/11/06 02:23:57;;;;;;;2.70;1.67;;;15.80;70.20;;;;;;5134613;27;20179;-68
2023/11/06 02:26:23;;;;;;;4.85;1.80;;;15.80;70.20;;;;;;5115590;27;20535;-69
2023/11/06 02:28:52;;;;;;;2.75;1.67;;;15.80;70.10;;;;;;5134041;27;20168;-69
2023/11/06 02:31:17;;;;;;;3.25;1.70;;;15.80;70.10;;;;;;5134333;27;20624;-68
2023/11/06 02:33:43;;;;;;;1.50;1.30;;;15.80;70.20;;;;;;5133693;27;20264;-69
2023/11/06 02:36:09;;;;;;;1.98;1.35;;;15.70;70.10;;;;;;5133983;27;20267;-68
2023/11/06 02:38:35;;;;;;;3.95;1.67;;;15.70;70.10;;;;;;5134620;27;20210;-69
2023/11/06 02:41:01;;;;;;;3.67;1.83;;;15.70;70.20;;;;;;5133299;27;20231;-68
2023/11/06 02:43:26;;;;;;;2.30;1.70;;;15.80;70.20;;;;;;5134368;27;20183;-68
2023/11/06 02:45:52;;;;;;;3.15;1.60;;;15.70;70.10;;;;;;5134212;27;20172;-69
2023/11/06 02:48:18;;;;;;;2.28;1.63;;;15.70;70.10;;;;;;5114621;28;20238;-69
2023/11/06 02:50:44;;;;;;;1.98;1.73;;;15.70;70.10;;;;;;5134040;27;20168;-69
2023/11/06 02:53:10;;;;;;;1.67;1.58;;;15.70;70.10;;;;;;5134027;27;20237;-69
2023/11/06 02:55:36;;;;;;;2.00;1.70;;;15.70;70.10;;;;;;5133576;27;20568;-70
2023/11/06 02:58:03;;;;;;;2.10;1.52;;;15.70;70.20;;;;;;5133907;27;20179;-68
2023/11/06 03:00:28;;;;;;;2.08;1.40;;;15.70;70.60;;;;;;5134013;27;20181;-68
2023/11/06 03:02:54;;;;;;;2.75;1.70;;;15.70;70.20;;;;;;5133467;27;20187;-69
2023/11/06 03:05:20;;;;;;;2.88;1.40;;;15.70;70.20;;;;;;5133894;27;20176;-68
2023/11/06 03:07:46;;;;;;;1.83;1.42;;;15.70;70.20;;;;;;5133442;27;20176;-70
2023/11/06 03:10:11;;;;;;;2.03;1.48;;;15.70;70.20;;;;;;5133842;27;20566;-69
2023/11/06 03:12:37;;;;;;;1.73;1.30;;;15.70;70.20;;;;;;5114925;27;20653;-69
2023/11/06 03:15:03;;;;;;;2.78;1.80;;;15.70;70.30;;;;;;5132917;27;20217;-68
2023/11/06 03:17:28;;;;;;;4.35;2.00;;;15.70;70.20;;;;;;5133688;27;20184;-68
2023/11/06 03:19:54;;;;;;;1.95;1.45;;;15.70;70.20;;;;;;5133503;28;20186;-68
2023/11/06 03:22:19;;;;;;;3.28;1.70;;;15.70;70.30;;;;;;5132640;28;20576;-68
2023/11/06 03:24:45;;;;;;;1.77;1.40;;;15.70;70.30;;;;;;5133671;28;20171;-69
2023/11/06 03:27:10;;;;;;;1.70;1.48;;;15.70;70.30;;;;;;5133344;28;20679;-69
2023/11/06 03:29:36;;;;;;;1.85;1.20;;;15.70;70.30;;;;;;5132900;28;20182;-69
2023/11/06 03:32:01;;;;;;;1.60;1.30;;;15.70;70.30;;;;;;5133454;28;20177;-68
2023/11/06 03:34:27;;;;;;;1.52;1.20;;;15.70;70.30;;;;;;5133291;28;20169;-68
2023/11/06 03:36:52;;;;;;;2.28;1.40;;;15.70;70.30;;;;;;5133189;28;20180;-68
2023/11/06 03:39:18;;;;;;;2.30;1.35;;;15.70;70.40;;;;;;5133294;28;20184;-68
2023/11/06 03:41:44;;;;;;;2.38;1.30;;;15.60;70.20;;;;;;5133710;28;20295;-68
2023/11/06 03:44:10;;;;;;;1.40;1.30;;;15.70;70.30;;;;;;5132514;28;20525;-68
2023/11/06 03:46:36;;;;;;;1.83;1.58;;;15.60;70.30;;;;;;5133484;28;20175;-68
2023/11/06 03:49:01;;;;;;;3.22;1.52;;;15.70;70.40;;;;;;5132963;28;20628;-68
2023/11/06 03:51:27;;;;;;;2.00;1.35;;;15.60;70.20;;;;;;5132912;28;20173;-68
2023/11/06 03:53:52;;;;;;;1.88;1.52;;;15.60;70.30;;;;;;5133838;28;20168;-69
2023/11/06 03:56:18;;;;;;;2.95;1.42;;;15.60;70.30;;;;;;5133554;28;20185;-68
2023/11/06 03:58:43;;;;;;;2.05;1.20;;;15.60;70.40;;;;;;5132966;28;20169;-68
2023/11/06 04:01:09;;;;;;;2.00;1.50;;;15.60;70.30;;;;;;5133073;28;20223;-68
2023/11/06 04:03:35;;;;;;;1.83;1.58;;;15.60;70.40;;;;;;5133444;28;20164;-68
2023/11/06 04:06:02;;;;;;;1.95;1.27;;;15.60;70.20;;;;;;5132553;28;20176;-68
2023/11/06 04:08:28;;;;;;;1.83;1.40;;;15.60;70.30;;;;;;5133425;28;20177;-68
2023/11/06 04:10:54;;;;;;;2.13;1.75;;;15.60;70.30;;;;;;5133324;28;20180;-68
2023/11/06 04:13:19;;;;;;;2.58;1.63;;;15.60;70.30;;;;;;5132454;28;20168;-68
2023/11/06 04:15:45;;;;;;;2.63;1.50;;;15.60;70.30;;;;;;5133295;28;20248;-68
2023/11/06 04:18:10;;;;;;;1.85;1.30;;;15.60;70.40;;;;;;5132149;28;20172;-68
2023/11/06 04:20:36;;;;;;;1.98;1.25;;;15.60;70.30;;;;;;5133407;28;20291;-67
2023/11/06 04:23:02;;;;;;;1.30;1.13;;;15.60;70.20;;;;;;5133742;27;20255;-68
2023/11/06 04:25:27;;;;;;;2.58;1.27;;;15.60;70.20;;;;;;5136251;27;20759;-68
2023/11/06 04:27:53;;;;;;;2.17;1.25;;;15.60;70.30;;;;;;5137080;27;20198;-68
2023/11/06 04:30:18;;;;;;;3.05;1.70;;;15.60;70.00;;;;;;5136388;27;20168;-67
2023/11/06 04:32:44;;;;;;;1.52;1.40;;;15.60;70.20;;;;;;5136122;27;20263;-68
2023/11/06 04:35:10;;;;;;;3.28;1.30;;;15.60;70.30;;;;;;5136449;27;20205;-69
2023/11/06 04:37:36;;;;;;;1.88;1.30;;;15.60;70.10;;;;;;5136877;27;20211;-69
2023/11/06 04:40:05;;;;;;;2.13;1.63;;;15.60;70.30;;;;;;5135841;27;20179;-68
2023/11/06 04:42:32;;;;;;;1.45;1.20;;;15.60;70.10;;;;;;5136612;27;20582;-68
2023/11/06 04:44:57;;;;;;;2.85;1.27;;;15.50;70.30;;;;;;5136487;27;20176;-68
2023/11/06 04:47:23;;;;;;;1.92;1.52;;;15.60;70.30;;;;;;5135530;27;20704;-68
2023/11/06 04:49:49;;;;;;;2.70;1.20;;;15.50;70.30;;;;;;5136404;27;20169;-68
2023/11/06 04:52:14;;;;;;;1.88;1.13;;;15.50;70.30;;;;;;5136137;27;20168;-68
2023/11/06 04:54:43;;;;;;;2.15;1.10;;;15.50;70.30;;;;;;5135732;27;20168;-69
2023/11/06 04:57:09;;;;;;;1.83;1.42;;;15.50;70.00;;;;;;5136136;27;20214;-68
2023/11/06 04:59:36;;;;;;;1.58;0.95;;;15.50;70.30;;;;;;5136269;27;20173;-68
2023/11/06 05:02:01;;;;;;;1.77;1.20;;;15.50;70.20;;;;;;5134869;27;20212;-68
2023/11/06 05:04:27;;;;;;;2.97;1.42;;;15.50;70.30;;;;;;5136501;27;20164;-68
2023/11/06 05:06:52;;;;;;;1.45;1.13;;;15.50;70.30;;;;;;5136346;27;20259;-68
2023/11/06 05:09:18;;;;;;;1.60;1.10;;;15.50;70.20;;;;;;5135147;27;20185;-68
2023/11/06 05:11:44;;;;;;;2.28;1.20;;;15.50;70.00;;;;;;5135987;27;20168;-70
2023/11/06 05:14:09;;;;;;;2.65;1.23;;;15.50;71.10;;;;;;5135633;27;20263;-68
2023/11/06 05:16:36;;;;;;;1.42;1.10;;;15.50;70.30;;;;;;5135288;27;20252;-68
2023/11/06 05:19:02;;;;;;;1.63;1.23;;;15.50;70.30;;;;;;5135903;27;20221;-68
2023/11/06 05:21:27;;;;;;;2.35;1.20;;;15.50;70.20;;;;;;5135321;27;20734;-68
2023/11/06 05:23:54;;;;;;;2.40;1.30;;;15.50;70.30;;;;;;5136061;27;20175;-68
2023/11/06 05:26:21;;;;;;;2.33;1.30;;;15.50;70.20;;;;;;5135572;27;20537;-68
2023/11/06 05:28:47;;;;;;;1.83;0.82;;;15.50;70.30;;;;;;5135096;27;20180;-68
2023/11/06 05:31:13;;;;;;;2.50;1.40;;;15.40;70.20;;;;;;5135291;27;20654;-68
2023/11/06 05:33:39;;;;;;;1.98;1.15;;;15.50;70.30;;;;;;5135607;27;20177;-68
2023/11/06 05:36:06;;;;;;;1.70;1.02;;;15.50;70.20;;;;;;5133980;27;20200;-68
2023/11/06 05:38:32;;;;;;;1.27;1.15;;;15.40;70.20;;;;;;5135810;27;20172;-68
2023/11/06 05:40:57;;;;;;;2.10;1.55;;;15.40;70.10;;;;;;5135440;27;20549;-67
2023/11/06 05:43:23;;;;;;;1.95;1.23;;;15.40;70.20;;;;;;5134714;27;20650;-68
2023/11/06 05:45:48;;;;;;;1.30;1.20;;;15.50;70.30;;;;;;5135249;27;20646;-68
2023/11/06 05:48:14;;;;;;;2.08;1.25;;;15.50;70.10;;;;;;5134980;27;20235;-68
2023/11/06 05:50:39;;;;;;;2.15;1.08;;;15.40;70.00;;;;;;5134780;27;20206;-68
2023/11/06 05:53:05;;;;;;;1.70;1.10;;;15.40;70.20;;;;;;5135049;27;20218;-68
2023/11/06 05:55:30;;;;;;;2.25;1.20;;;15.40;70.10;;;;;;5135416;27;20172;-68
2023/11/06 05:57:56;;;;;;;2.25;1.30;;;15.40;70.20;;;;;;5134594;27;20182;-68
2023/11/06 06:00:22;;;;;;;1.55;1.20;;;15.40;70.20;;;;;;5134740;27;20204;-67
2023/11/06 06:02:47;;;;;;;1.80;1.13;;;15.40;70.10;;;;;;5135043;27;20183;-68
2023/11/06 06:05:13;;;;;;;1.63;0.90;;;15.40;70.10;;;;;;5134154;27;20176;-67
2023/11/06 06:07:39;;;;;;;1.92;1.15;;;15.40;70.20;;;;;;5134961;27;20177;-70
2023/11/06 06:10:05;;;;;;;1.13;1.02;;;15.40;70.20;;;;;;5134618;27;20678;-68
2023/11/06 06:12:33;;;;;;;1.10;1.00;;;15.40;70.20;;;;;;5133888;27;20264;-69
2023/11/06 06:14:59;;;;;;;1.63;1.13;;;15.40;70.10;;;;;;5134540;27;20177;-68
2023/11/06 06:17:25;;;;;;;2.78;1.25;;;15.40;70.20;;;;;;5134799;27;20531;-67
2023/11/06 06:19:50;;;;;;;1.80;1.08;;;15.40;70.10;;;;;;5134142;27;20172;-68
2023/11/06 06:22:16;;;;;;;1.83;1.23;;;15.40;70.30;;;;;;5134489;27;20215;-68
2023/11/06 06:24:42;;;;;;;2.25;1.42;;;15.40;70.00;;;;;;5133866;27;20172;-68
2023/11/06 06:27:07;;;;;;;1.58;1.00;;;15.40;70.20;;;;;;5134138;27;20176;-68
2023/11/06 06:29:33;;;;;;;1.35;1.20;;;15.40;70.50;;;;;;5134350;27;20172;-68
2023/11/06 06:31:58;;;;;;;1.27;1.17;;;15.40;70.20;;;;;;5133651;27;20177;-68
2023/11/06 06:34:24;;;;;;;1.75;1.20;;;15.40;70.20;;;;;;5134407;27;20172;-69
2023/11/06 06:36:49;;;;;;;1.42;1.20;;;15.40;70.10;;;;;;5134580;27;20180;-68
2023/11/06 06:39:15;;;;;;;1.88;1.27;;;15.40;70.20;;;;;;5133342;27;20504;-69
2023/11/06 06:41:41;;;;;;;1.33;1.13;;;15.40;70.10;;;;;;5134305;27;20196;-67
2023/11/06 06:44:06;;;;;;;1.48;1.33;;;15.30;70.20;;;;;;5133736;27;20174;-67
2023/11/06 06:46:32;;;;;;;1.25;0.90;;;15.30;70.20;;;;;;5132792;27;20172;-68
2023/11/06 06:48:58;;;;;;;2.40;1.35;;;15.30;70.00;;;;;;5133897;27;20401;-68
2023/11/06 06:51:23;;;;;;;2.15;1.40;;;15.30;70.00;;;;;;5134216;27;20210;-68
2023/11/06 06:53:51;;;;;;;2.70;1.63;;;15.30;70.20;;;;;;5133377;27;20226;-70
2023/11/06 06:56:16;;;;;;;2.78;1.48;;;15.40;70.10;;;;;;5133460;27;20175;-68
2023/11/06 06:58:42;;;;;;;2.33;1.35;;;15.30;70.10;;;;;;5133942;27;20173;-69
2023/11/06 07:01:08;;;;;;;1.48;1.00;;;15.30;70.20;;;;;;5133188;27;20204;-68
2023/11/06 07:03:36;;;;;;;2.97;1.13;;;15.30;70.10;;;;;;5134098;27;20161;-68
2023/11/06 07:06:03;;;;;;;2.30;1.10;;;15.30;71.00;;;;;;5115852;27;20184;-69
2023/11/06 07:08:29;;;;;;;1.50;1.30;;;15.40;70.10;;;;;;5133224;27;20187;-69
2023/11/06 07:10:55;;;;;;;1.92;1.20;;;15.40;70.10;;;;;;5133688;27;20168;-70
2023/11/06 07:13:20;;;;;;;3.83;1.00;;;15.50;70.20;;;;;;5133708;27;20280;-68
2023/11/06 07:15:46;;;;;;;1.73;1.17;;;15.60;70.00;;;;;;5133423;27;20215;-68
2023/11/06 07:18:11;;;;;;;1.95;1.05;;;15.70;69.70;;;;;;5133693;27;20189;-68
2023/11/06 07:20:37;;;;;;;2.25;1.00;;;15.90;69.60;;;;;;5133850;28;20172;-68
2023/11/06 07:23:04;;;;;;;1.02;0.93;;;16.10;69.40;;;;;;5132643;28;20176;-69
2023/11/06 07:25:29;;;;;;;4.07;1.00;;;16.20;68.90;;;;;;5133688;28;20248;-74
2023/11/06 07:27:56;;;;;;;2.50;1.10;;;16.40;68.90;;;;;;5133031;28;20184;-72
2023/11/06 07:30:22;;;;;;;5.18;1.42;;;16.70;68.80;;;;;;5133519;28;20221;-72
2023/11/06 07:32:48;;;;;;;4.32;1.98;;;16.90;68.10;;;;;;5133873;28;20184;-73
2023/11/06 07:35:14;;;;;;;3.67;1.20;;;17.10;67.60;;;;;;5132408;28;20168;-72
2023/11/06 07:37:40;;;;;;;8.35;1.45;;;17.30;67.30;;;;;;5133575;28;20263;-74
2023/11/06 07:40:06;;;;;;;2.40;1.23;;;17.60;66.50;;;;;;5133226;28;20637;-72
2023/11/06 07:42:32;;;;;;;4.20;1.50;;;17.70;65.90;;;;;;5132690;28;20212;-72
2023/11/06 07:44:58;;;;;;;4.72;1.20;;;17.80;65.80;;;;;;5133660;28;20172;-70
2023/11/06 07:47:23;;;;;;;4.20;1.13;;;17.90;65.60;;;;;;5133254;28;20179;-71
2023/11/06 07:49:49;;;;;;;5.68;1.25;;;17.90;65.50;;;;;;5132990;28;20175;-70
2023/11/06 07:52:16;;;;;;;2.47;1.38;;;17.90;65.40;;;;;;5133282;28;20178;-70
2023/11/06 07:54:41;;;;;;;3.08;1.15;;;18.00;65.40;;;;;;5133541;28;20184;-71
2023/11/06 07:57:09;;;;;;;2.50;1.00;;;18.00;65.30;;;;;;5132468;27;20177;-72
2023/11/06 07:59:38;;;;;;;4.03;1.20;;;18.00;65.30;;;;;;5137151;27;20233;-73
2023/11/06 08:02:04;;;;;;;3.28;1.25;;;18.00;65.20;;;;;;5136965;27;20678;-72
2023/11/06 08:04:30;;;;;;;3.70;1.73;;;18.00;65.30;;;;;;5136866;27;20175;-73
2023/11/06 08:06:55;;;;;;;5.40;1.67;;;18.00;65.50;;;;;;5137343;27;20173;-73
2023/11/06 08:09:21;;;;;;;2.10;1.10;;;17.80;65.70;;;;;;5136927;27;20518;-72
2023/11/06 08:11:46;;;;;;;4.80;1.38;;;17.70;65.90;;;;;;5136143;27;20169;-72
2023/11/06 08:14:12;;;;;;;3.13;1.58;;;17.60;66.30;;;;;;5136908;27;20168;-71
2023/11/06 08:16:37;;;;;;;3.28;1.10;;;17.60;66.60;;;;;;5137084;27;20200;-72
2023/11/06 08:19:03;;;;;;;2.65;1.40;;;17.50;66.90;;;;;;5136211;27;20172;-71
2023/11/06 08:21:30;;;;;;;3.40;1.02;;;17.40;66.90;;;;;;5137042;27;20605;-79
2023/11/06 08:23:56;;;;;;;3.33;1.60;;;17.30;67.50;;;;;;5136928;27;20544;-72
2023/11/06 08:26:21;;;;;;;4.03;1.98;;;17.20;67.30;;;;;;5136084;27;20642;-72
2023/11/06 08:28:47;;;;;;;3.80;1.48;;;17.20;67.70;;;;;;5136918;27;20168;-72
2023/11/06 08:31:18;;;;;;;4.82;1.48;;;17.20;67.80;;;;;;5136022;27;20181;-72
2023/11/06 08:33:44;;;;;;;3.30;1.42;;;17.10;67.80;;;;;;5136956;27;20177;-73
2023/11/06 08:36:10;;;;;;;2.25;1.42;;;17.20;67.80;;;;;;5136387;27;20563;-73
2023/11/06 08:38:35;;;;;;;3.78;1.40;;;17.20;67.70;;;;;;5135828;27;20176;-72
2023/11/06 08:41:02;;;;;;;5.40;1.63;;;17.20;67.60;;;;;;5136245;27;20211;-72
2023/11/06 08:43:27;;;;;;;4.78;1.75;;;17.20;67.60;;;;;;5136813;27;20177;-72
2023/11/06 08:45:54;;;;;;;4.72;1.73;;;17.10;67.90;;;;;;5136024;27;20172;-69
2023/11/06 08:48:19;;;;;;;3.17;1.38;;;17.10;67.90;;;;;;5136118;27;20220;-72
2023/11/06 08:50:45;;;;;;;3.72;1.42;;;17.10;67.80;;;;;;5136550;27;20195;-72
2023/11/06 08:53:10;;;;;;;3.78;1.35;;;17.10;67.80;;;;;;5135360;27;20168;-71
2023/11/06 08:55:36;;;;;;;3.22;1.40;;;17.10;68.10;;;;;;5136575;27;20172;-74
2023/11/06 08:58:02;;;;;;;3.55;1.58;;;17.20;68.10;;;;;;5136233;27;20173;-71
2023/11/06 09:00:29;;;;;;;4.45;1.25;;;17.30;68.80;;;;;;5135710;27;20171;-72
2023/11/06 09:02:57;;;;;;;3.85;1.35;;;17.30;67.80;;;;;;5136387;27;20575;-72
2023/11/06 09:05:23;;;;;;;2.55;1.30;;;17.30;67.60;;;;;;5136230;27;20260;-72
2023/11/06 09:07:50;;;;;;;3.70;1.25;;;17.20;67.80;;;;;;5135454;27;20176;-74
2023/11/06 09:10:17;;;;;;;3.17;1.40;;;17.30;67.90;;;;;;5134886;27;20256;-74
2023/11/06 09:12:43;;;;;;;4.75;1.38;;;17.20;68.00;;;;;;5136196;27;20168;-74
2023/11/06 09:15:10;;;;;;;2.97;1.42;;;17.20;68.10;;;;;;5135176;27;20531;-72
2023/11/06 09:17:35;;;;;;;2.15;1.23;;;17.20;68.00;;;;;;5136373;27;20179;-73
2023/11/06 09:20:01;;;;;;;2.78;1.38;;;17.20;68.10;;;;;;5135638;27;20176;-72
2023/11/06 09:22:26;;;;;;;3.10;1.88;;;17.10;68.30;;;;;;5135073;27;20655;-73
2023/11/06 09:24:52;;;;;;;3.88;1.60;;;17.10;68.50;;;;;;5135999;27;20570;-74
2023/11/06 09:27:17;;;;;;;5.80;1.70;;;17.00;68.70;;;;;;5135535;27;20177;-71
2023/11/06 09:29:43;;;;;;;3.90;1.30;;;17.00;68.80;;;;;;5135252;27;20169;-73
2023/11/06 09:32:09;;;;;;;3.13;1.35;;;16.90;68.90;;;;;;5135405;27;20303;-71
2023/11/06 09:34:36;;;;;;;2.60;1.45;;;17.00;69.00;;;;;;5134994;27;20172;-73
2023/11/06 09:37:01;;;;;;;4.30;1.50;;;17.00;68.90;;;;;;5135317;27;20172;-74
2023/11/06 09:39:27;;;;;;;3.63;1.50;;;17.00;69.00;;;;;;5135799;27;20587;-73
2023/11/06 09:41:53;;;;;;;4.15;1.75;;;16.90;69.10;;;;;;5134792;27;20227;-72
2023/11/06 09:44:20;;;;;;;4.97;1.73;;;16.90;69.20;;;;;;5117160;27;20207;-72
2023/11/06 09:46:45;;;;;;;2.97;1.27;;;16.90;69.20;;;;;;5135545;27;20172;-71
2023/11/06 09:49:16;;;;;;;4.80;1.70;;;16.90;69.10;;;;;;5134167;27;20216;-73
2023/11/06 09:51:43;;;;;;;2.25;1.25;;;16.80;69.20;;;;;;5135497;27;20176;-72
2023/11/06 09:54:11;;;;;;;2.85;1.13;;;16.80;69.20;;;;;;5117187;27;20183;-73
2023/11/06 09:56:42;;;;;;;1.80;1.02;;;16.80;69.40;;;;;;5134706;27;20207;-73
2023/11/06 09:59:08;;;;;;;3.50;1.33;;;16.80;69.20;;;;;;5117570;27;20176;-73
2023/11/06 10:01:34;;;;;;;3.42;1.52;;;16.90;69.20;;;;;;5135128;27;20570;-74
2023/11/06 10:04:00;;;;;;;2.45;1.25;;;16.90;69.10;;;;;;5115667;27;20168;-73
2023/11/06 10:06:25;;;;;;;3.10;1.35;;;16.90;69.10;;;;;;5134963;27;20173;-76
2023/11/06 10:08:51;;;;;;;3.58;1.50;;;16.80;68.90;;;;;;5116550;27;20172;-75
2023/11/06 10:11:23;;;;;;;3.33;1.20;;;16.80;69.00;;;;;;5134143;27;20271;-74
2023/11/06 10:13:53;;;;;;;4.20;1.40;;;16.80;69.00;;;;;;5135055;27;20196;-72
2023/11/06 10:16:24;;;;;;;2.85;1.30;;;16.80;69.00;;;;;;5134458;27;20181;-73
2023/11/06 10:18:50;;;;;;;3.72;1.20;;;16.80;69.00;;;;;;5134078;27;20173;-73
2023/11/06 10:21:27;;;;;;;2.55;1.35;;;16.80;68.90;;;;;;5134446;27;20204;-75
2023/11/06 10:23:57;;;;;;;3.00;1.45;;;16.80;68.90;;;;;;5134254;27;20177;-73
2023/11/06 10:26:27;;;;;;;3.88;1.40;;;16.80;69.00;;;;;;5134629;27;20180;-73
2023/11/06 10:29:06;;;;;;;2.75;1.23;;;16.80;69.00;;;;;;5116495;27;20187;-73
2023/11/06 10:31:37;;;;;;;2.53;1.30;;;16.70;69.00;;;;;;5134046;27;20179;-73
2023/11/06 10:34:03;;;;;;;3.38;1.23;;;16.70;69.30;;;;;;5134310;27;20317;-73
2023/11/06 10:36:28;;;;;;;2.55;1.35;;;16.70;69.40;;;;;;5134664;27;20221;-73
2023/11/06 10:39:03;;;;;;;3.70;1.58;;;16.70;69.10;;;;;;5133572;27;20309;-74
2023/11/06 10:41:29;;;;;;;3.83;1.38;;;16.70;68.80;;;;;;5100634;27;20210;-75
2023/11/06 10:44:01;;;;;;;3.60;1.70;;;16.70;68.80;;;;;;5134710;27;20176;-71
2023/11/06 10:46:32;;;;;;;3.00;1.25;;;16.80;68.90;;;;;;5134113;27;20188;-72
2023/11/06 10:49:11;;;;;;;4.30;1.70;;;16.80;68.80;;;;;;5133206;27;20216;-72
2023/11/06 10:51:38;;;;;;;4.68;1.90;;;16.80;68.90;;;;;;5115959;27;20583;-73
2023/11/06 10:54:04;;;;;;;4.13;1.48;;;16.80;68.70;;;;;;5114783;27;20529;-73
2023/11/06 10:56:30;;;;;;;2.72;1.40;;;16.80;68.70;;;;;;5116090;27;20187;-73
2023/11/06 10:58:59;;;;;;;3.40;1.50;;;16.90;68.60;;;;;;5133312;27;20615;-73
2023/11/06 11:01:25;;;;;;;3.83;1.40;;;16.90;68.60;;;;;;5116119;27;20200;-73
2023/11/06 11:03:50;;;;;;;3.90;1.63;;;16.80;68.50;;;;;;5116268;27;20172;-73
2023/11/06 11:06:16;;;;;;;3.33;1.40;;;16.90;68.40;;;;;;5097765;27;20180;-74
2023/11/06 11:08:42;;;;;;;5.47;1.58;;;16.80;68.40;;;;;;5115761;27;20267;-73
2023/11/06 11:11:09;;;;;;;6.03;2.00;;;16.80;68.40;;;;;;5115588;28;20172;-73
2023/11/06 11:13:34;;;;;;;6.15;1.65;;;16.80;68.50;;;;;;5133335;27;20255;-75
2023/11/06 11:16:38;;;;;;;4.15;1.52;;;16.80;68.50;;;;;;5115526;27;20195;-73
2023/11/06 11:19:22;;;;;;;4.85;1.85;;;16.80;68.70;;;;;;5133398;27;20534;-73
2023/11/06 11:22:03;;;;;;;5.40;1.95;;;16.70;68.60;;;;;;5133201;27;20212;-73
2023/11/06 11:24:41;;;;;;;4.28;1.75;;;16.70;68.70;;;;;;5133954;28;20182;-73
2023/11/06 11:27:07;;;;;;;7.07;1.58;;;16.70;69.00;;;;;;5132875;28;20258;-73
2023/11/06 11:29:54;;;;;;;5.22;1.65;;;16.60;69.30;;;;;;5133747;28;20236;-74
2023/11/06 11:32:20;;;;;;;3.60;1.40;;;16.60;69.30;;;;;;5133639;27;20172;-74
2023/11/06 11:34:46;;;;;;;3.72;1.75;;;16.70;69.30;;;;;;5137185;27;20179;-76
2023/11/06 11:37:26;;;;;;;6.35;2.05;;;16.60;68.90;;;;;;5137713;27;20224;-75
2023/11/06 11:39:52;;;;;;;4.70;1.83;;;16.60;68.70;;;;;;5137812;27;20195;-76
2023/11/06 11:42:18;;;;;;;4.07;1.88;;;16.60;68.60;;;;;;5136729;27;20212;-74
2023/11/06 11:45:11;;;;;;;9.68;2.30;;;16.60;68.90;;;;;;5137768;27;20178;-74
2023/11/06 11:47:46;;;;;;;6.32;1.42;;;16.60;69.40;;;;;;5137840;27;20223;-73
2023/11/06 11:50:27;;;;;;;4.43;1.75;;;16.60;69.40;;;;;;5136536;27;20171;-73
2023/11/06 11:52:53;;;;;;;4.88;1.88;;;16.60;69.40;;;;;;5137667;27;20634;-73
2023/11/06 11:55:35;;;;;;;6.68;1.83;;;16.50;70.00;;;;;;5136754;27;20203;-73
2023/11/06 11:58:10;;;;;;;7.25;2.00;;;16.60;70.10;;;;;;5137328;27;20187;-74
2023/11/06 12:00:42;;;;;;;6.15;1.50;;;16.60;69.30;;;;;;5137417;27;20527;-75
2023/11/06 12:03:12;;;;;;;4.30;1.60;;;16.60;69.10;;;;;;5136457;27;20216;-74
2023/11/06 12:05:38;;;;;;;5.20;1.80;;;16.60;69.30;;;;;;5137345;27;20509;-76
2023/11/06 12:08:17;;;;;;;3.50;1.67;;;16.50;69.40;;;;;;5137006;27;20207;-74
2023/11/06 12:10:43;;;;;;;4.55;1.58;;;16.50;69.20;;;;;;5136796;27;20256;-72
2023/11/06 12:13:13;;;;;;;7.45;1.80;;;16.50;68.70;;;;;;5137010;27;20584;-72
2023/11/06 12:15:38;;;;;;;5.82;1.80;;;16.50;68.20;;;;;;5137527;27;20187;-74
2023/11/06 12:18:11;;;;;;;4.28;1.60;;;16.50;68.80;;;;;;5136337;27;20165;-72
2023/11/06 12:20:36;;;;;;;7.38;1.92;;;16.50;68.80;;;;;;5137118;27;20177;-75
2023/11/06 12:23:02;;;;;;;7.05;1.85;;;16.50;68.60;;;;;;5136876;27;20186;-76
2023/11/06 12:25:33;;;;;;;5.38;1.73;;;16.60;68.60;;;;;;5136406;27;20183;-75
2023/11/06 12:28:03;;;;;;;4.45;1.83;;;16.60;68.60;;;;;;5136966;27;20225;-75
2023/11/06 12:30:29;;;;;;;6.13;1.98;;;16.60;68.50;;;;;;5136388;27;20176;-76
2023/11/06 12:32:55;;;;;;;3.80;1.77;;;16.60;68.60;;;;;;5137345;27;20172;-75
2023/11/06 12:35:20;;;;;;;4.20;1.60;;;16.50;68.30;;;;;;5118789;27;20580;-76
2023/11/06 12:37:53;;;;;;;6.25;1.98;;;16.60;68.50;;;;;;5136761;27;20623;-77
2023/11/06 12:40:21;;;;;;;7.53;2.20;;;16.60;68.50;;;;;;5136453;27;20207;-71
2023/11/06 12:42:46;;;;;;;4.97;1.50;;;16.50;68.50;;;;;;5136877;27;20292;-72
2023/11/06 12:45:31;;;;;;;4.53;1.58;;;16.50;68.70;;;;;;5135457;27;20199;-69